sensor_id;sensor_type;location;lat;lon;timestamp;temperature;humidity
25983;DHT22;13773;48.868;10.730;2023-02-28T00:00:28;-3.10;99.90
25983;DHT22;13773;48.868;10.730;2023-02-28T00:02:53;-3.10;99.90
25983;DHT22;13773;48.868;10.730;2023-02-28T00:05:22;-3.20;99.90
25983;DHT22;13773;48.868;10.730;2023-02-28T00:07:48;-3.20;99.90
25983;DHT22;13773;48.868;10.730;2023-02-28T00:10:26;-3.20;99.90
25983;DHT22;13773;48.868;10.730;2023-02-28T00:12:54;-3.20;99.90
25983;DHT22;13773;48.868;10.730;2023-02-28T00:15:23;-3.20;99.90
25983;DHT22;13773;48.868;10.730;2023-02-28T00:17:49;-3.20;99.90
25983;DHT22;13773;48.868;10.730;2023-02-28T00:20:15;-3.20;99.90
25983;DHT22;13773;48.868;10.730;2023-02-28T00:22:43;-3.20;99.90
25983;DHT22;13773;48.868;10.730;2023-02-28T00:25:11;-3.20;99.90
25983;DHT22;13773;48.868;10.730;2023-02-28T00:27:38;-3.30;99.90
25983;DHT22;13773;48.868;10.730;2023-02-28T00:30:08;-3.20;99.90
25983;DHT22;13773;48.868;10.730;2023-02-28T00:32:35;-3.30;99.90
25983;DHT22;13773;48.868;10.730;2023-02-28T00:35:01;-3.30;99.90
25983;DHT22;13773;48.868;10.730;2023-02-28T00:37:27;-3.30;99.90
25983;DHT22;13773;48.868;10.730;2023-02-28T00:39:53;-3.20;99.90
25983;DHT22;13773;48.868;10.730;2023-02-28T00:42:19;-3.30;99.90
25983;DHT22;13773;48.868;10.730;2023-02-28T00:44:44;-3.40;99.90
25983;DHT22;13773;48.868;10.730;2023-02-28T00:47:10;-3.50;99.90
25983;DHT22;13773;48.868;10.730;2023-02-28T00:49:36;-3.40;99.90
25983;DHT22;13773;48.868;10.730;2023-02-28T00:52:02;-3.40;99.90
25983;DHT22;13773;48.868;10.730;2023-02-28T00:54:27;-3.40;99.90
25983;DHT22;13773;48.868;10.730;2023-02-28T00:56:53;-3.50;99.90
25983;DHT22;13773;48.868;10.730;2023-02-28T00:59:19;-3.40;99.90
25983;DHT22;13773;48.868;10.730;2023-02-28T01:01:46;-3.50;99.90
25983;DHT22;13773;48.868;10.730;2023-02-28T01:04:12;-3.50;99.90
25983;DHT22;13773;48.868;10.730;2023-02-28T01:06:39;-3.60;99.90
25983;DHT22;13773;48.868;10.730;2023-02-28T01:09:05;-3.50;99.90
25983;DHT22;13773;48.868;10.730;2023-02-28T01:11:31;-3.50;99.90
25983;DHT22;13773;48.868;10.730;2023-02-28T01:13:58;-3.60;99.90
25983;DHT22;13773;48.868;10.730;2023-02-28T01:16:24;-3.60;99.90
25983;DHT22;13773;48.868;10.730;2023-02-28T01:18:50;-3.60;99.90
25983;DHT22;13773;48.868;10.730;2023-02-28T01:21:18;-3.60;99.90
25983;DHT22;13773;48.868;10.730;2023-02-28T01:23:45;-3.70;99.90
25983;DHT22;13773;48.868;10.730;2023-02-28T01:26:17;-3.70;99.90
25983;DHT22;13773;48.868;10.730;2023-02-28T01:28:43;-3.70;99.90
25983;DHT22;13773;48.868;10.730;2023-02-28T01:31:09;-3.70;99.90
25983;DHT22;13773;48.868;10.730;2023-02-28T01:33:36;-3.70;99.90
25983;DHT22;13773;48.868;10.730;2023-02-28T01:36:05;-3.80;99.90
25983;DHT22;13773;48.868;10.730;2023-02-28T01:38:32;-3.70;99.90
25983;DHT22;13773;48.868;10.730;2023-02-28T01:40:58;-3.80;99.90
25983;DHT22;13773;48.868;10.730;2023-02-28T01:43:39;-3.80;99.90
25983;DHT22;13773;48.868;10.730;2023-02-28T01:46:17;-3.70;99.90
25983;DHT22;13773;48.868;10.730;2023-02-28T01:48:57;-3.90;99.90
25983;DHT22;13773;48.868;10.730;2023-02-28T01:51:31;-3.90;99.90
25983;DHT22;13773;48.868;10.730;2023-02-28T01:54:11;-3.90;99.90
25983;DHT22;13773;48.868;10.730;2023-02-28T01:56:44;-3.90;99.90
25983;DHT22;13773;48.868;10.730;2023-02-28T01:59:14;-4.00;99.90
25983;DHT22;13773;48.868;10.730;2023-02-28T02:01:40;-4.00;99.90
25983;DHT22;13773;48.868;10.730;2023-02-28T02:04:06;-4.10;99.90
25983;DHT22;13773;48.868;10.730;2023-02-28T02:06:38;-4.00;99.90
25983;DHT22;13773;48.868;10.730;2023-02-28T02:09:05;-4.10;99.90
25983;DHT22;13773;48.868;10.730;2023-02-28T02:11:32;-4.00;99.90
25983;DHT22;13773;48.868;10.730;2023-02-28T02:17:17;-4.10;99.90
25983;DHT22;13773;48.868;10.730;2023-02-28T02:25:59;-4.20;99.90
25983;DHT22;13773;48.868;10.730;2023-02-28T02:34:16;-4.30;99.90
25983;DHT22;13773;48.868;10.730;2023-02-28T02:37:02;-4.30;99.90
25983;DHT22;13773;48.868;10.730;2023-02-28T02:42:14;-4.30;99.90
25983;DHT22;13773;48.868;10.730;2023-02-28T02:44:46;-4.30;99.90
25983;DHT22;13773;48.868;10.730;2023-02-28T02:47:19;-4.30;99.90
25983;DHT22;13773;48.868;10.730;2023-02-28T02:49:55;-4.30;99.90
25983;DHT22;13773;48.868;10.730;2023-02-28T02:52:27;-4.40;99.90
25983;DHT22;13773;48.868;10.730;2023-02-28T02:54:56;-4.30;99.90
25983;DHT22;13773;48.868;10.730;2023-02-28T02:57:33;-4.40;99.90
25983;DHT22;13773;48.868;10.730;2023-02-28T03:00:00;-4.40;99.90
25983;DHT22;13773;48.868;10.730;2023-02-28T03:02:29;-4.40;99.90
25983;DHT22;13773;48.868;10.730;2023-02-28T03:05:02;-4.50;99.90
25983;DHT22;13773;48.868;10.730;2023-02-28T03:07:29;-4.50;99.90
25983;DHT22;13773;48.868;10.730;2023-02-28T03:09:56;-4.50;99.90
25983;DHT22;13773;48.868;10.730;2023-02-28T03:12:39;-4.50;99.90
25983;DHT22;13773;48.868;10.730;2023-02-28T03:15:20;-4.50;99.90
25983;DHT22;13773;48.868;10.730;2023-02-28T03:17:54;-4.50;99.90
25983;DHT22;13773;48.868;10.730;2023-02-28T03:33:47;-4.60;99.90
25983;DHT22;13773;48.868;10.730;2023-02-28T03:36:32;-4.60;99.90
25983;DHT22;13773;48.868;10.730;2023-02-28T03:39:04;-4.60;99.90
25983;DHT22;13773;48.868;10.730;2023-02-28T03:41:36;-4.60;99.90
25983;DHT22;13773;48.868;10.730;2023-02-28T03:44:16;-4.50;99.90
25983;DHT22;13773;48.868;10.730;2023-02-28T03:46:51;-4.50;99.90
25983;DHT22;13773;48.868;10.730;2023-02-28T03:49:46;-4.50;99.90
25983;DHT22;13773;48.868;10.730;2023-02-28T03:52:17;-4.40;99.90
25983;DHT22;13773;48.868;10.730;2023-02-28T03:54:51;-4.40;99.90
25983;DHT22;13773;48.868;10.730;2023-02-28T04:00:12;-4.40;99.90
25983;DHT22;13773;48.868;10.730;2023-02-28T04:02:39;-4.40;99.90
25983;DHT22;13773;48.868;10.730;2023-02-28T04:05:06;-4.30;99.90
25983;DHT22;13773;48.868;10.730;2023-02-28T04:07:32;-4.30;99.90
25983;DHT22;13773;48.868;10.730;2023-02-28T04:09:58;-4.30;99.90
25983;DHT22;13773;48.868;10.730;2023-02-28T04:12:24;-4.30;99.90
25983;DHT22;13773;48.868;10.730;2023-02-28T04:14:50;-4.20;99.90
25983;DHT22;13773;48.868;10.730;2023-02-28T04:17:16;-4.20;99.90
25983;DHT22;13773;48.868;10.730;2023-02-28T04:19:41;-4.20;99.90
25983;DHT22;13773;48.868;10.730;2023-02-28T04:22:08;-4.20;99.90
25983;DHT22;13773;48.868;10.730;2023-02-28T04:24:34;-4.20;99.90
25983;DHT22;13773;48.868;10.730;2023-02-28T04:26:59;-4.20;99.90
25983;DHT22;13773;48.868;10.730;2023-02-28T04:29:30;-4.20;99.90
25983;DHT22;13773;48.868;10.730;2023-02-28T04:31:58;-4.20;99.90
25983;DHT22;13773;48.868;10.730;2023-02-28T04:34:25;-4.20;99.90
25983;DHT22;13773;48.868;10.730;2023-02-28T04:36:52;-4.20;99.90
25983;DHT22;13773;48.868;10.730;2023-02-28T04:39:21;-4.20;99.90
25983;DHT22;13773;48.868;10.730;2023-02-28T04:41:47;-4.20;99.90
25983;DHT22;13773;48.868;10.730;2023-02-28T04:44:14;-4.20;99.90
25983;DHT22;13773;48.868;10.730;2023-02-28T04:46:40;-4.20;99.90
25983;DHT22;13773;48.868;10.730;2023-02-28T04:49:06;-4.20;99.90
25983;DHT22;13773;48.868;10.730;2023-02-28T04:51:31;-4.20;99.90
25983;DHT22;13773;48.868;10.730;2023-02-28T04:53:57;-4.10;99.90
25983;DHT22;13773;48.868;10.730;2023-02-28T04:56:23;-4.10;99.90
25983;DHT22;13773;48.868;10.730;2023-02-28T04:58:49;-4.10;99.90
25983;DHT22;13773;48.868;10.730;2023-02-28T05:03:48;-4.10;99.90
25983;DHT22;13773;48.868;10.730;2023-02-28T05:06:14;-4.10;99.90
25983;DHT22;13773;48.868;10.730;2023-02-28T05:08:40;-4.10;99.90
25983;DHT22;13773;48.868;10.730;2023-02-28T05:11:19;-4.10;99.90
25983;DHT22;13773;48.868;10.730;2023-02-28T05:13:45;-4.10;99.90
25983;DHT22;13773;48.868;10.730;2023-02-28T05:16:11;-4.20;99.90
25983;DHT22;13773;48.868;10.730;2023-02-28T05:18:37;-4.20;99.90
25983;DHT22;13773;48.868;10.730;2023-02-28T05:21:03;-4.20;99.90
25983;DHT22;13773;48.868;10.730;2023-02-28T05:23:29;-4.20;99.90
25983;DHT22;13773;48.868;10.730;2023-02-28T05:25:55;-4.30;99.90
25983;DHT22;13773;48.868;10.730;2023-02-28T05:28:21;-4.30;99.90
25983;DHT22;13773;48.868;10.730;2023-02-28T05:30:48;-4.30;99.90
25983;DHT22;13773;48.868;10.730;2023-02-28T05:33:13;-4.40;99.90
25983;DHT22;13773;48.868;10.730;2023-02-28T05:35:40;-4.30;99.90
25983;DHT22;13773;48.868;10.730;2023-02-28T05:38:06;-4.40;99.90
25983;DHT22;13773;48.868;10.730;2023-02-28T05:40:32;-4.40;99.90
25983;DHT22;13773;48.868;10.730;2023-02-28T05:42:58;-4.40;99.90
25983;DHT22;13773;48.868;10.730;2023-02-28T05:45:23;-4.40;99.90
25983;DHT22;13773;48.868;10.730;2023-02-28T05:47:52;-4.40;99.90
25983;DHT22;13773;48.868;10.730;2023-02-28T05:50:18;-4.40;99.90
25983;DHT22;13773;48.868;10.730;2023-02-28T05:52:44;-4.50;99.90
25983;DHT22;13773;48.868;10.730;2023-02-28T05:55:10;-4.40;99.90
25983;DHT22;13773;48.868;10.730;2023-02-28T05:57:35;-4.40;99.90
25983;DHT22;13773;48.868;10.730;2023-02-28T06:00:02;-4.40;99.90
25983;DHT22;13773;48.868;10.730;2023-02-28T06:02:28;-4.40;99.90
25983;DHT22;13773;48.868;10.730;2023-02-28T06:04:53;-4.50;99.90
25983;DHT22;13773;48.868;10.730;2023-02-28T06:07:19;-4.40;99.90
25983;DHT22;13773;48.868;10.730;2023-02-28T06:09:45;-4.40;99.90
25983;DHT22;13773;48.868;10.730;2023-02-28T06:12:10;-3.50;99.90
25983;DHT22;13773;48.868;10.730;2023-02-28T06:14:36;-4.40;99.90
25983;DHT22;13773;48.868;10.730;2023-02-28T06:17:02;-4.40;99.90
25983;DHT22;13773;48.868;10.730;2023-02-28T06:19:28;-4.40;99.90
25983;DHT22;13773;48.868;10.730;2023-02-28T06:21:56;-4.40;99.90
25983;DHT22;13773;48.868;10.730;2023-02-28T06:24:24;-4.30;99.90
25983;DHT22;13773;48.868;10.730;2023-02-28T06:26:50;-4.30;99.90
25983;DHT22;13773;48.868;10.730;2023-02-28T06:29:16;-4.30;99.90
25983;DHT22;13773;48.868;10.730;2023-02-28T06:31:44;-4.20;99.90
25983;DHT22;13773;48.868;10.730;2023-02-28T06:34:11;-4.20;99.90
25983;DHT22;13773;48.868;10.730;2023-02-28T06:36:38;-4.20;99.90
25983;DHT22;13773;48.868;10.730;2023-02-28T06:39:05;-4.10;99.90
25983;DHT22;13773;48.868;10.730;2023-02-28T06:41:30;-4.10;99.90
25983;DHT22;13773;48.868;10.730;2023-02-28T06:43:56;-4.10;99.90
25983;DHT22;13773;48.868;10.730;2023-02-28T06:46:22;-4.00;99.90
25983;DHT22;13773;48.868;10.730;2023-02-28T06:48:48;-4.00;99.90
25983;DHT22;13773;48.868;10.730;2023-02-28T06:51:19;-3.90;99.90
25983;DHT22;13773;48.868;10.730;2023-02-28T06:53:50;-3.80;99.90
25983;DHT22;13773;48.868;10.730;2023-02-28T06:56:17;-3.80;99.90
25983;DHT22;13773;48.868;10.730;2023-02-28T06:58:49;-3.70;99.90
25983;DHT22;13773;48.868;10.730;2023-02-28T07:01:16;-3.70;99.90
25983;DHT22;13773;48.868;10.730;2023-02-28T07:03:42;-3.70;99.90
25983;DHT22;13773;48.868;10.730;2023-02-28T07:06:07;-3.70;99.90
25983;DHT22;13773;48.868;10.730;2023-02-28T07:08:34;-3.60;99.90
25983;DHT22;13773;48.868;10.730;2023-02-28T07:11:01;-3.60;99.90
25983;DHT22;13773;48.868;10.730;2023-02-28T07:13:27;-3.60;99.90
25983;DHT22;13773;48.868;10.730;2023-02-28T07:16:04;-3.50;99.90
25983;DHT22;13773;48.868;10.730;2023-02-28T07:18:31;-3.60;99.90
25983;DHT22;13773;48.868;10.730;2023-02-28T07:20:57;-3.50;99.90
25983;DHT22;13773;48.868;10.730;2023-02-28T07:23:23;-3.50;99.90
25983;DHT22;13773;48.868;10.730;2023-02-28T07:25:50;-3.50;99.90
25983;DHT22;13773;48.868;10.730;2023-02-28T07:28:16;-3.40;99.90
25983;DHT22;13773;48.868;10.730;2023-02-28T07:30:42;-3.40;99.90
25983;DHT22;13773;48.868;10.730;2023-02-28T07:33:08;-3.30;99.90
25983;DHT22;13773;48.868;10.730;2023-02-28T07:35:33;-3.30;99.90
25983;DHT22;13773;48.868;10.730;2023-02-28T07:38:00;-3.30;99.90
25983;DHT22;13773;48.868;10.730;2023-02-28T07:40:26;-3.20;99.90
25983;DHT22;13773;48.868;10.730;2023-02-28T07:42:52;-3.20;99.90
25983;DHT22;13773;48.868;10.730;2023-02-28T07:45:18;-3.10;99.90
25983;DHT22;13773;48.868;10.730;2023-02-28T07:47:45;-3.00;99.90
25983;DHT22;13773;48.868;10.730;2023-02-28T07:50:14;-3.00;99.90
25983;DHT22;13773;48.868;10.730;2023-02-28T07:52:40;-2.90;99.90
25983;DHT22;13773;48.868;10.730;2023-02-28T07:55:07;-2.80;99.90
25983;DHT22;13773;48.868;10.730;2023-02-28T07:57:34;-2.80;99.90
25983;DHT22;13773;48.868;10.730;2023-02-28T08:00:00;-2.80;99.90
25983;DHT22;13773;48.868;10.730;2023-02-28T08:02:26;-2.70;99.90
25983;DHT22;13773;48.868;10.730;2023-02-28T08:04:52;-2.60;99.90
25983;DHT22;13773;48.868;10.730;2023-02-28T08:07:18;-2.60;99.90
25983;DHT22;13773;48.868;10.730;2023-02-28T08:09:44;-2.50;99.90
25983;DHT22;13773;48.868;10.730;2023-02-28T08:12:11;-2.40;99.90
25983;DHT22;13773;48.868;10.730;2023-02-28T08:14:36;-2.30;99.90
25983;DHT22;13773;48.868;10.730;2023-02-28T08:17:03;-2.30;99.90
25983;DHT22;13773;48.868;10.730;2023-02-28T08:19:29;-2.10;99.90
25983;DHT22;13773;48.868;10.730;2023-02-28T08:21:55;-2.00;99.90
25983;DHT22;13773;48.868;10.730;2023-02-28T08:24:21;-1.90;99.90
25983;DHT22;13773;48.868;10.730;2023-02-28T08:26:47;-1.80;99.90
25983;DHT22;13773;48.868;10.730;2023-02-28T08:29:13;-1.70;99.90
25983;DHT22;13773;48.868;10.730;2023-02-28T08:31:39;-1.60;99.90
25983;DHT22;13773;48.868;10.730;2023-02-28T08:34:09;-1.50;99.90
25983;DHT22;13773;48.868;10.730;2023-02-28T08:36:36;1.50;99.90
25983;DHT22;13773;48.868;10.730;2023-02-28T08:39:03;-1.40;99.90
25983;DHT22;13773;48.868;10.730;2023-02-28T08:41:29;-1.40;99.90
25983;DHT22;13773;48.868;10.730;2023-02-28T08:43:55;-1.40;99.90
25983;DHT22;13773;48.868;10.730;2023-02-28T08:46:21;-1.30;99.90
25983;DHT22;13773;48.868;10.730;2023-02-28T08:48:47;-1.20;99.90
25983;DHT22;13773;48.868;10.730;2023-02-28T08:51:17;-1.00;99.90
25983;DHT22;13773;48.868;10.730;2023-02-28T08:53:47;-1.00;99.90
25983;DHT22;13773;48.868;10.730;2023-02-28T08:56:16;-1.00;99.90
25983;DHT22;13773;48.868;10.730;2023-02-28T08:58:46;-0.90;99.90
25983;DHT22;13773;48.868;10.730;2023-02-28T09:01:24;-0.90;99.90
25983;DHT22;13773;48.868;10.730;2023-02-28T09:03:51;-0.70;99.90
25983;DHT22;13773;48.868;10.730;2023-02-28T09:06:18;-0.60;99.90
25983;DHT22;13773;48.868;10.730;2023-02-28T09:08:44;-0.50;99.90
25983;DHT22;13773;48.868;10.730;2023-02-28T09:11:10;-0.50;99.90
25983;DHT22;13773;48.868;10.730;2023-02-28T09:13:37;-0.60;99.90
25983;DHT22;13773;48.868;10.730;2023-02-28T09:16:05;-0.70;99.90
25983;DHT22;13773;48.868;10.730;2023-02-28T09:18:31;-0.50;99.90
25983;DHT22;13773;48.868;10.730;2023-02-28T09:20:58;-0.40;99.90
25983;DHT22;13773;48.868;10.730;2023-02-28T09:23:24;-0.30;99.90
25983;DHT22;13773;48.868;10.730;2023-02-28T09:25:53;-0.10;99.90
25983;DHT22;13773;48.868;10.730;2023-02-28T09:28:20;-0.10;99.90
25983;DHT22;13773;48.868;10.730;2023-02-28T09:30:52;-0.30;99.90
25983;DHT22;13773;48.868;10.730;2023-02-28T09:33:19;-0.10;99.90
25983;DHT22;13773;48.868;10.730;2023-02-28T09:35:49;0.00;99.90
25983;DHT22;13773;48.868;10.730;2023-02-28T09:38:16;0.10;99.90
25983;DHT22;13773;48.868;10.730;2023-02-28T09:40:55;0.10;99.90
25983;DHT22;13773;48.868;10.730;2023-02-28T09:43:25;0.00;99.90
25983;DHT22;13773;48.868;10.730;2023-02-28T09:48:56;0.20;99.90
25983;DHT22;13773;48.868;10.730;2023-02-28T09:51:44;0.20;99.90
25983;DHT22;13773;48.868;10.730;2023-02-28T09:54:15;0.20;99.90
25983;DHT22;13773;48.868;10.730;2023-02-28T09:56:45;0.40;99.90
25983;DHT22;13773;48.868;10.730;2023-02-28T10:01:56;0.50;99.90
25983;DHT22;13773;48.868;10.730;2023-02-28T10:06:56;0.60;99.90
25983;DHT22;13773;48.868;10.730;2023-02-28T10:09:30;0.60;99.90
25983;DHT22;13773;48.868;10.730;2023-02-28T10:12:02;0.80;99.90
25983;DHT22;13773;48.868;10.730;2023-02-28T10:14:32;0.60;99.90
25983;DHT22;13773;48.868;10.730;2023-02-28T10:17:04;0.50;99.90
25983;DHT22;13773;48.868;10.730;2023-02-28T10:19:44;0.80;99.90
25983;DHT22;13773;48.868;10.730;2023-02-28T10:25:22;0.80;99.90
25983;DHT22;13773;48.868;10.730;2023-02-28T10:27:51;1.00;99.90
25983;DHT22;13773;48.868;10.730;2023-02-28T10:30:18;1.00;99.90
25983;DHT22;13773;48.868;10.730;2023-02-28T10:32:50;0.90;99.90
25983;DHT22;13773;48.868;10.730;2023-02-28T10:35:24;1.00;99.90
25983;DHT22;13773;48.868;10.730;2023-02-28T10:37:54;1.20;99.90
25983;DHT22;13773;48.868;10.730;2023-02-28T10:43:04;1.20;99.90
25983;DHT22;13773;48.868;10.730;2023-02-28T10:45:35;1.20;99.90
25983;DHT22;13773;48.868;10.730;2023-02-28T10:50:43;1.00;99.90
25983;DHT22;13773;48.868;10.730;2023-02-28T10:55:59;1.30;99.90
25983;DHT22;13773;48.868;10.730;2023-02-28T10:58:29;1.10;99.90
25983;DHT22;13773;48.868;10.730;2023-02-28T11:00:56;1.20;99.90
25983;DHT22;13773;48.868;10.730;2023-02-28T11:03:30;1.50;99.90
25983;DHT22;13773;48.868;10.730;2023-02-28T11:05:57;1.40;99.90
25983;DHT22;13773;48.868;10.730;2023-02-28T11:08:23;1.40;99.90
25983;DHT22;13773;48.868;10.730;2023-02-28T11:11:08;1.40;99.90
25983;DHT22;13773;48.868;10.730;2023-02-28T11:13:36;1.30;99.90
25983;DHT22;13773;48.868;10.730;2023-02-28T11:16:08;1.60;99.90
25983;DHT22;13773;48.868;10.730;2023-02-28T11:21:07;1.50;99.90
25983;DHT22;13773;48.868;10.730;2023-02-28T11:23:35;1.60;99.90
25983;DHT22;13773;48.868;10.730;2023-02-28T11:26:03;1.60;99.90
25983;DHT22;13773;48.868;10.730;2023-02-28T11:28:38;1.80;99.90
25983;DHT22;13773;48.868;10.730;2023-02-28T11:33:40;1.80;99.90
25983;DHT22;13773;48.868;10.730;2023-02-28T11:36:26;1.90;99.90
25983;DHT22;13773;48.868;10.730;2023-02-28T11:39:01;2.00;99.90
25983;DHT22;13773;48.868;10.730;2023-02-28T11:47:15;1.90;99.90
25983;DHT22;13773;48.868;10.730;2023-02-28T11:52:56;2.00;99.90
25983;DHT22;13773;48.868;10.730;2023-02-28T11:55:36;2.20;99.90
25983;DHT22;13773;48.868;10.730;2023-02-28T12:00:47;2.20;99.90
25983;DHT22;13773;48.868;10.730;2023-02-28T12:03:34;2.50;99.90
25983;DHT22;13773;48.868;10.730;2023-02-28T12:06:25;2.50;99.90
25983;DHT22;13773;48.868;10.730;2023-02-28T12:28:13;2.70;99.90
25983;DHT22;13773;48.868;10.730;2023-02-28T12:30:49;2.60;99.90
25983;DHT22;13773;48.868;10.730;2023-02-28T12:33:18;2.50;99.90
25983;DHT22;13773;48.868;10.730;2023-02-28T12:35:52;2.60;99.90
25983;DHT22;13773;48.868;10.730;2023-02-28T12:38:36;2.60;99.90
25983;DHT22;13773;48.868;10.730;2023-02-28T12:41:12;2.90;99.90
25983;DHT22;13773;48.868;10.730;2023-02-28T12:43:43;2.80;99.90
25983;DHT22;13773;48.868;10.730;2023-02-28T12:46:55;2.70;99.90
25983;DHT22;13773;48.868;10.730;2023-02-28T12:49:34;2.70;99.90
25983;DHT22;13773;48.868;10.730;2023-02-28T12:52:03;3.00;99.90
25983;DHT22;13773;48.868;10.730;2023-02-28T12:54:49;3.20;99.90
25983;DHT22;13773;48.868;10.730;2023-02-28T12:57:18;3.30;99.90
25983;DHT22;13773;48.868;10.730;2023-02-28T12:59:56;3.20;99.90
25983;DHT22;13773;48.868;10.730;2023-02-28T13:11:37;3.30;99.90
25983;DHT22;13773;48.868;10.730;2023-02-28T13:19:55;3.00;99.90
25983;DHT22;13773;48.868;10.730;2023-02-28T13:24:55;3.00;99.90
25983;DHT22;13773;48.868;10.730;2023-02-28T13:27:24;2.70;99.90
25983;DHT22;13773;48.868;10.730;2023-02-28T13:29:52;2.80;99.90
25983;DHT22;13773;48.868;10.730;2023-02-28T13:32:33;2.80;99.90
25983;DHT22;13773;48.868;10.730;2023-02-28T13:40:31;3.00;99.90
25983;DHT22;13773;48.868;10.730;2023-02-28T13:42:49;3.00;99.90
25983;DHT22;13773;48.868;10.730;2023-02-28T13:45:28;2.80;99.90
25983;DHT22;13773;48.868;10.730;2023-02-28T13:48:01;3.00;99.90
25983;DHT22;13773;48.868;10.730;2023-02-28T13:50:38;2.90;99.90
25983;DHT22;13773;48.868;10.730;2023-02-28T13:56:00;3.00;99.90
25983;DHT22;13773;48.868;10.730;2023-02-28T14:07:03;3.50;99.90
25983;DHT22;13773;48.868;10.730;2023-02-28T14:09:38;3.50;99.90
25983;DHT22;13773;48.868;10.730;2023-02-28T14:17:54;3.60;99.90
25983;DHT22;13773;48.868;10.730;2023-02-28T14:20:22;3.50;99.90
25983;DHT22;13773;48.868;10.730;2023-02-28T14:22:55;3.30;99.90
25983;DHT22;13773;48.868;10.730;2023-02-28T14:36:35;3.50;99.90
25983;DHT22;13773;48.868;10.730;2023-02-28T14:39:19;3.50;99.90
25983;DHT22;13773;48.868;10.730;2023-02-28T14:41:45;3.40;99.90
25983;DHT22;13773;48.868;10.730;2023-02-28T14:44:22;3.60;99.90
25983;DHT22;13773;48.868;10.730;2023-02-28T14:46:54;3.70;99.90
25983;DHT22;13773;48.868;10.730;2023-02-28T14:49:34;3.80;99.90
25983;DHT22;13773;48.868;10.730;2023-02-28T14:54:36;3.30;99.90
25983;DHT22;13773;48.868;10.730;2023-02-28T14:57:03;3.60;99.90
25983;DHT22;13773;48.868;10.730;2023-02-28T14:59:34;3.60;99.90
25983;DHT22;13773;48.868;10.730;2023-02-28T15:02:36;3.40;99.90
25983;DHT22;13773;48.868;10.730;2023-02-28T15:05:29;3.30;99.90
25983;DHT22;13773;48.868;10.730;2023-02-28T15:08:15;3.20;99.90
25983;DHT22;13773;48.868;10.730;2023-02-28T15:10:56;3.30;99.90
25983;DHT22;13773;48.868;10.730;2023-02-28T15:13:25;3.30;99.90
25983;DHT22;13773;48.868;10.730;2023-02-28T15:21:02;3.40;99.90
25983;DHT22;13773;48.868;10.730;2023-02-28T15:23:29;3.30;99.90
25983;DHT22;13773;48.868;10.730;2023-02-28T15:25:56;3.20;99.90
25983;DHT22;13773;48.868;10.730;2023-02-28T15:28:22;3.20;99.90
25983;DHT22;13773;48.868;10.730;2023-02-28T15:33:32;3.10;99.90
25983;DHT22;13773;48.868;10.730;2023-02-28T15:36:15;3.20;99.90
25983;DHT22;13773;48.868;10.730;2023-02-28T15:38:43;3.30;99.90
25983;DHT22;13773;48.868;10.730;2023-02-28T15:41:25;3.20;99.90
25983;DHT22;13773;48.868;10.730;2023-02-28T15:46:42;3.10;99.90
25983;DHT22;13773;48.868;10.730;2023-02-28T15:49:18;3.10;99.90
25983;DHT22;13773;48.868;10.730;2023-02-28T15:51:44;3.00;99.90
25983;DHT22;13773;48.868;10.730;2023-02-28T15:54:27;3.10;99.90
25983;DHT22;13773;48.868;10.730;2023-02-28T15:56:55;3.20;99.90
25983;DHT22;13773;48.868;10.730;2023-02-28T15:59:25;3.00;99.90
25983;DHT22;13773;48.868;10.730;2023-02-28T16:02:16;2.90;99.90
25983;DHT22;13773;48.868;10.730;2023-02-28T16:05:22;2.90;99.90
25983;DHT22;13773;48.868;10.730;2023-02-28T16:07:54;2.80;99.90
25983;DHT22;13773;48.868;10.730;2023-02-28T16:10:21;2.70;99.90
25983;DHT22;13773;48.868;10.730;2023-02-28T16:12:50;2.60;99.90
25983;DHT22;13773;48.868;10.730;2023-02-28T16:15:24;2.60;99.90
25983;DHT22;13773;48.868;10.730;2023-02-28T16:17:52;2.60;99.90
25983;DHT22;13773;48.868;10.730;2023-02-28T16:20:24;2.50;99.90
25983;DHT22;13773;48.868;10.730;2023-02-28T16:22:50;2.50;99.90
25983;DHT22;13773;48.868;10.730;2023-02-28T16:25:23;2.40;99.90
25983;DHT22;13773;48.868;10.730;2023-02-28T16:27:51;2.30;99.90
25983;DHT22;13773;48.868;10.730;2023-02-28T16:30:27;2.20;99.90
25983;DHT22;13773;48.868;10.730;2023-02-28T16:32:55;2.10;99.90
25983;DHT22;13773;48.868;10.730;2023-02-28T16:35:21;2.00;99.90
25983;DHT22;13773;48.868;10.730;2023-02-28T16:37:47;1.90;99.90
25983;DHT22;13773;48.868;10.730;2023-02-28T16:40:19;1.80;99.90
25983;DHT22;13773;48.868;10.730;2023-02-28T16:42:47;1.70;99.90
25983;DHT22;13773;48.868;10.730;2023-02-28T16:45:27;1.60;99.90
25983;DHT22;13773;48.868;10.730;2023-02-28T16:47:54;1.60;99.90
25983;DHT22;13773;48.868;10.730;2023-02-28T16:50:28;1.50;99.90
25983;DHT22;13773;48.868;10.730;2023-02-28T16:52:55;1.30;99.90
25983;DHT22;13773;48.868;10.730;2023-02-28T16:55:23;1.20;99.90
25983;DHT22;13773;48.868;10.730;2023-02-28T16:57:53;1.00;99.90
25983;DHT22;13773;48.868;10.730;2023-02-28T17:00:19;0.90;99.90
25983;DHT22;13773;48.868;10.730;2023-02-28T17:02:45;0.80;99.90
25983;DHT22;13773;48.868;10.730;2023-02-28T17:05:12;0.80;99.90
25983;DHT22;13773;48.868;10.730;2023-02-28T17:07:38;0.70;99.90
25983;DHT22;13773;48.868;10.730;2023-02-28T17:10:24;0.60;99.90
25983;DHT22;13773;48.868;10.730;2023-02-28T17:12:50;0.60;99.90
25983;DHT22;13773;48.868;10.730;2023-02-28T17:15:17;0.60;99.90
25983;DHT22;13773;48.868;10.730;2023-02-28T17:17:44;0.50;99.90
25983;DHT22;13773;48.868;10.730;2023-02-28T17:20:15;0.30;99.90
25983;DHT22;13773;48.868;10.730;2023-02-28T17:22:41;0.40;99.90
25983;DHT22;13773;48.868;10.730;2023-02-28T17:25:08;0.20;99.90
25983;DHT22;13773;48.868;10.730;2023-02-28T17:27:35;0.00;99.90
25983;DHT22;13773;48.868;10.730;2023-02-28T17:30:00;-0.20;99.90
25983;DHT22;13773;48.868;10.730;2023-02-28T17:32:26;-0.30;99.90
25983;DHT22;13773;48.868;10.730;2023-02-28T17:34:53;-0.30;99.90
25983;DHT22;13773;48.868;10.730;2023-02-28T17:37:19;-0.40;99.90
25983;DHT22;13773;48.868;10.730;2023-02-28T17:39:44;-0.40;99.90
25983;DHT22;13773;48.868;10.730;2023-02-28T17:42:10;-0.40;99.90
25983;DHT22;13773;48.868;10.730;2023-02-28T17:44:36;-0.40;99.90
25983;DHT22;13773;48.868;10.730;2023-02-28T17:47:03;-0.20;99.90
25983;DHT22;13773;48.868;10.730;2023-02-28T17:49:29;-0.30;99.90
25983;DHT22;13773;48.868;10.730;2023-02-28T17:51:55;-0.40;99.90
25983;DHT22;13773;48.868;10.730;2023-02-28T17:54:20;-0.50;99.90
25983;DHT22;13773;48.868;10.730;2023-02-28T17:56:46;-0.40;99.90
25983;DHT22;13773;48.868;10.730;2023-02-28T17:59:12;-0.60;99.90
25983;DHT22;13773;48.868;10.730;2023-02-28T18:01:38;-0.70;99.90
25983;DHT22;13773;48.868;10.730;2023-02-28T18:04:04;-0.60;99.90
25983;DHT22;13773;48.868;10.730;2023-02-28T18:06:40;-0.50;99.90
25983;DHT22;13773;48.868;10.730;2023-02-28T18:09:17;-0.60;99.90
25983;DHT22;13773;48.868;10.730;2023-02-28T18:11:43;-0.50;99.90
25983;DHT22;13773;48.868;10.730;2023-02-28T18:14:14;-0.60;99.90